sensor_id;sensor_type;location;lat;lon;timestamp;pressure;altitude;pressure_sealevel;temperature;humidity
21879;BME280;27908;42.708;23.278;2023-02-19T00:02:20;63039.03;;;5.11;88.45
21879;BME280;27908;42.708;23.278;2023-02-19T00:04:45;63002.22;;;5.14;87.95
21879;BME280;27908;42.708;23.278;2023-02-19T00:07:11;62971.50;;;4.80;90.54
21879;BME280;27908;42.708;23.278;2023-02-19T00:09:36;62955.88;;;4.82;91.74
21879;BME280;27908;42.708;23.278;2023-02-19T00:12:02;62941.50;;;4.63;92.21
21879;BME280;27908;42.708;23.278;2023-02-19T00:14:27;62990.53;;;4.69;92.76
21879;BME280;27908;42.708;23.278;2023-02-19T00:16:53;62982.06;;;4.78;92.52
21879;BME280;27908;42.708;23.278;2023-02-19T00:19:19;62946.56;;;4.63;93.02
21879;BME280;27908;42.708;23.278;2023-02-19T00:21:46;62977.53;;;4.78;92.89
21879;BME280;27908;42.708;23.278;2023-02-19T00:24:13;62965.94;;;4.79;92.98
21879;BME280;27908;42.708;23.278;2023-02-19T00:26:39;62984.09;;;4.80;91.99
21879;BME280;27908;42.708;23.278;2023-02-19T00:29:05;62964.91;;;4.78;92.11
21879;BME280;27908;42.708;23.278;2023-02-19T00:31:32;62976.63;;;4.87;91.65
21879;BME280;27908;42.708;23.278;2023-02-19T00:34:00;62945.09;;;4.66;93.56
21879;BME280;27908;42.708;23.278;2023-02-19T00:36:27;62953.69;;;4.70;94.08
21879;BME280;27908;42.708;23.278;2023-02-19T00:38:52;62984.41;;;4.63;95.24
21879;BME280;27908;42.708;23.278;2023-02-19T00:41:19;62956.53;;;4.56;95.29
21879;BME280;27908;42.708;23.278;2023-02-19T00:43:54;62917.84;;;4.67;94.09
21879;BME280;27908;42.708;23.278;2023-02-19T00:48:56;62985.56;;;4.76;94.39
21879;BME280;27908;42.708;23.278;2023-02-19T00:51:24;62987.56;;;4.73;93.75
21879;BME280;27908;42.708;23.278;2023-02-19T00:53:50;63009.00;;;4.55;93.82
21879;BME280;27908;42.708;23.278;2023-02-19T00:56:16;62946.72;;;4.75;93.97
21879;BME280;27908;42.708;23.278;2023-02-19T00:58:42;62956.25;;;4.72;94.02
21879;BME280;27908;42.708;23.278;2023-02-19T01:01:08;62969.94;;;4.78;93.93
21879;BME280;27908;42.708;23.278;2023-02-19T01:03:35;62974.09;;;4.85;94.11
21879;BME280;27908;42.708;23.278;2023-02-19T01:06:01;62961.44;;;4.82;93.42
21879;BME280;27908;42.708;23.278;2023-02-19T01:08:26;62994.72;;;4.80;94.41
21879;BME280;27908;42.708;23.278;2023-02-19T01:10:52;62995.75;;;4.81;94.38
21879;BME280;27908;42.708;23.278;2023-02-19T01:13:17;63006.81;;;4.80;95.33
21879;BME280;27908;42.708;23.278;2023-02-19T01:15:43;62987.13;;;4.80;95.15
21879;BME280;27908;42.708;23.278;2023-02-19T01:18:09;62925.88;;;4.62;95.77
21879;BME280;27908;42.708;23.278;2023-02-19T01:20:40;63023.97;;;4.79;95.00
21879;BME280;27908;42.708;23.278;2023-02-19T01:23:06;63006.00;;;4.94;91.69
21879;BME280;27908;42.708;23.278;2023-02-19T01:25:32;63004.78;;;5.17;90.88
21879;BME280;27908;42.708;23.278;2023-02-19T01:27:57;63050.34;;;5.27;89.88
21879;BME280;27908;42.708;23.278;2023-02-19T01:30:22;63051.50;;;5.37;89.16
21879;BME280;27908;42.708;23.278;2023-02-19T01:32:48;63060.72;;;5.46;88.61
21879;BME280;27908;42.708;23.278;2023-02-19T01:35:13;63039.53;;;5.50;88.49
21879;BME280;27908;42.708;23.278;2023-02-19T01:37:39;63048.69;;;5.54;88.17
21879;BME280;27908;42.708;23.278;2023-02-19T01:40:04;63086.28;;;5.32;88.08
21879;BME280;27908;42.708;23.278;2023-02-19T01:42:30;63051.69;;;5.52;87.90
21879;BME280;27908;42.708;23.278;2023-02-19T01:45:26;63043.00;;;5.44;88.45
21879;BME280;27908;42.708;23.278;2023-02-19T01:48:02;63046.50;;;5.42;89.04
21879;BME280;27908;42.708;23.278;2023-02-19T01:50:32;62983.13;;;5.23;88.56
21879;BME280;27908;42.708;23.278;2023-02-19T01:53:02;63034.13;;;5.23;89.78
21879;BME280;27908;42.708;23.278;2023-02-19T01:55:30;63002.13;;;5.07;91.29
21879;BME280;27908;42.708;23.278;2023-02-19T01:57:56;62991.91;;;4.97;91.26
21879;BME280;27908;42.708;23.278;2023-02-19T02:00:22;62961.25;;;5.09;91.11
21879;BME280;27908;42.708;23.278;2023-02-19T02:02:51;62984.75;;;4.90;92.58
21879;BME280;27908;42.708;23.278;2023-02-19T02:05:35;62968.56;;;4.87;92.52
21879;BME280;27908;42.708;23.278;2023-02-19T02:08:02;62996.88;;;4.92;93.08
21879;BME280;27908;42.708;23.278;2023-02-19T02:10:47;62967.41;;;4.76;94.06
21879;BME280;27908;42.708;23.278;2023-02-19T02:13:12;62963.91;;;4.80;93.90
21879;BME280;27908;42.708;23.278;2023-02-19T02:15:48;62948.69;;;4.72;94.29
21879;BME280;27908;42.708;23.278;2023-02-19T02:21:23;62954.28;;;4.75;95.06
21879;BME280;27908;42.708;23.278;2023-02-19T02:31:41;62933.94;;;4.63;94.20
21879;BME280;27908;42.708;23.278;2023-02-19T02:34:15;62942.41;;;4.54;95.37
21879;BME280;27908;42.708;23.278;2023-02-19T02:36:44;62916.78;;;4.22;97.23
21879;BME280;27908;42.708;23.278;2023-02-19T02:39:14;62883.09;;;4.31;96.41
21879;BME280;27908;42.708;23.278;2023-02-19T02:41:43;62889.47;;;4.18;95.83
21879;BME280;27908;42.708;23.278;2023-02-19T02:44:10;62914.81;;;4.27;96.52
21879;BME280;27908;42.708;23.278;2023-02-19T02:46:39;62885.72;;;3.99;98.77
21879;BME280;27908;42.708;23.278;2023-02-19T02:49:16;62878.88;;;4.17;98.05
21879;BME280;27908;42.708;23.278;2023-02-19T02:51:50;62873.25;;;4.09;97.95
21879;BME280;27908;42.708;23.278;2023-02-19T02:54:26;62869.97;;;3.89;98.69
21879;BME280;27908;42.708;23.278;2023-02-19T02:57:13;62912.25;;;3.86;98.70
21879;BME280;27908;42.708;23.278;2023-02-19T02:59:41;62911.78;;;3.88;99.04
21879;BME280;27908;42.708;23.278;2023-02-19T03:02:11;62867.41;;;3.87;99.28
21879;BME280;27908;42.708;23.278;2023-02-19T03:07:35;62890.53;;;3.82;100.00
21879;BME280;27908;42.708;23.278;2023-02-19T03:10:05;62857.22;;;3.79;100.00
21879;BME280;27908;42.708;23.278;2023-02-19T03:12:33;62849.59;;;3.72;100.00
21879;BME280;27908;42.708;23.278;2023-02-19T03:15:20;62817.84;;;3.73;100.00
21879;BME280;27908;42.708;23.278;2023-02-19T03:18:07;62802.19;;;3.67;100.00
21879;BME280;27908;42.708;23.278;2023-02-19T03:20:56;62836.06;;;3.78;100.00
21879;BME280;27908;42.708;23.278;2023-02-19T03:23:25;62908.69;;;3.85;100.00
21879;BME280;27908;42.708;23.278;2023-02-19T03:26:12;62867.19;;;4.08;100.00
21879;BME280;27908;42.708;23.278;2023-02-19T03:28:41;62885.91;;;4.12;100.00
21879;BME280;27908;42.708;23.278;2023-02-19T03:31:29;62979.38;;;4.29;97.81
21879;BME280;27908;42.708;23.278;2023-02-19T03:33:58;62931.88;;;4.59;96.47
21879;BME280;27908;42.708;23.278;2023-02-19T03:36:32;62968.28;;;4.64;95.10
21879;BME280;27908;42.708;23.278;2023-02-19T03:39:04;63002.38;;;4.88;92.60
21879;BME280;27908;42.708;23.278;2023-02-19T03:49:48;63010.28;;;5.15;90.79
21879;BME280;27908;42.708;23.278;2023-02-19T03:55:17;62999.78;;;5.22;90.05
21879;BME280;27908;42.708;23.278;2023-02-19T04:00:12;62998.53;;;5.42;88.57
21879;BME280;27908;42.708;23.278;2023-02-19T04:02:49;63061.78;;;5.52;87.36
21879;BME280;27908;42.708;23.278;2023-02-19T04:05:21;63084.69;;;5.65;86.86
21879;BME280;27908;42.708;23.278;2023-02-19T04:07:50;63069.56;;;5.69;85.31
21879;BME280;27908;42.708;23.278;2023-02-19T04:10:18;63137.66;;;5.94;84.52
21879;BME280;27908;42.708;23.278;2023-02-19T04:12:48;63118.59;;;6.07;83.88
21879;BME280;27908;42.708;23.278;2023-02-19T04:15:20;63095.91;;;6.12;82.56
21879;BME280;27908;42.708;23.278;2023-02-19T04:17:57;63120.31;;;6.23;82.09
21879;BME280;27908;42.708;23.278;2023-02-19T04:20:26;63135.63;;;6.33;80.59
21879;BME280;27908;42.708;23.278;2023-02-19T04:22:52;63144.28;;;6.39;80.44
21879;BME280;27908;42.708;23.278;2023-02-19T04:25:19;63165.66;;;6.50;79.66
21879;BME280;27908;42.708;23.278;2023-02-19T04:27:44;63139.84;;;6.49;80.06
21879;BME280;27908;42.708;23.278;2023-02-19T04:30:12;63160.78;;;6.65;79.64
21879;BME280;27908;42.708;23.278;2023-02-19T04:32:38;63199.69;;;6.61;79.77
21879;BME280;27908;42.708;23.278;2023-02-19T04:35:04;63171.53;;;6.75;79.03
21879;BME280;27908;42.708;23.278;2023-02-19T04:37:29;63200.97;;;6.81;78.88
21879;BME280;27908;42.708;23.278;2023-02-19T04:39:55;63202.91;;;6.73;78.73
21879;BME280;27908;42.708;23.278;2023-02-19T04:42:20;63219.84;;;6.95;78.92
21879;BME280;27908;42.708;23.278;2023-02-19T04:44:46;63223.47;;;7.01;78.52
21879;BME280;27908;42.708;23.278;2023-02-19T04:47:11;63198.16;;;7.01;78.64
21879;BME280;27908;42.708;23.278;2023-02-19T04:49:36;63227.09;;;7.07;78.45
21879;BME280;27908;42.708;23.278;2023-02-19T04:52:02;63241.22;;;7.01;77.79
21879;BME280;27908;42.708;23.278;2023-02-19T04:54:27;63219.50;;;7.07;78.37
21879;BME280;27908;42.708;23.278;2023-02-19T04:56:53;63240.34;;;7.12;77.32
21879;BME280;27908;42.708;23.278;2023-02-19T04:59:18;63244.44;;;7.16;77.05
21879;BME280;27908;42.708;23.278;2023-02-19T05:01:44;63213.56;;;7.20;76.01
21879;BME280;27908;42.708;23.278;2023-02-19T05:04:09;63236.25;;;7.10;76.57
21879;BME280;27908;42.708;23.278;2023-02-19T05:06:35;63206.78;;;7.02;76.28
21879;BME280;27908;42.708;23.278;2023-02-19T05:09:00;63223.97;;;7.01;76.26
21879;BME280;27908;42.708;23.278;2023-02-19T05:11:25;63213.47;;;7.10;75.79
21879;BME280;27908;42.708;23.278;2023-02-19T05:13:51;63232.72;;;7.12;75.19
21879;BME280;27908;42.708;23.278;2023-02-19T05:16:17;63171.75;;;6.95;75.67
21879;BME280;27908;42.708;23.278;2023-02-19T05:18:44;63227.03;;;7.02;75.46
21879;BME280;27908;42.708;23.278;2023-02-19T05:21:10;63229.16;;;7.08;75.39
21879;BME280;27908;42.708;23.278;2023-02-19T05:23:36;63240.81;;;7.10;75.06
21879;BME280;27908;42.708;23.278;2023-02-19T05:26:19;63217.56;;;7.14;74.77
21879;BME280;27908;42.708;23.278;2023-02-19T05:28:47;63274.44;;;7.25;74.00
21879;BME280;27908;42.708;23.278;2023-02-19T05:31:12;63259.19;;;7.20;74.26
21879;BME280;27908;42.708;23.278;2023-02-19T05:33:38;63237.81;;;7.14;73.84
21879;BME280;27908;42.708;23.278;2023-02-19T05:36:10;63199.66;;;7.00;74.76
21879;BME280;27908;42.708;23.278;2023-02-19T05:38:36;63209.38;;;7.09;75.12
21879;BME280;27908;42.708;23.278;2023-02-19T05:41:10;63222.56;;;7.09;75.58
21879;BME280;27908;42.708;23.278;2023-02-19T05:43:37;63245.97;;;7.17;74.67
21879;BME280;27908;42.708;23.278;2023-02-19T05:46:04;63238.88;;;7.18;74.26
21879;BME280;27908;42.708;23.278;2023-02-19T05:48:29;63255.34;;;7.39;74.35
21879;BME280;27908;42.708;23.278;2023-02-19T05:51:03;63285.94;;;7.56;73.93
21879;BME280;27908;42.708;23.278;2023-02-19T05:53:29;63331.91;;;7.83;72.31
21879;BME280;27908;42.708;23.278;2023-02-19T05:55:55;63338.13;;;7.96;71.63
21879;BME280;27908;42.708;23.278;2023-02-19T05:58:20;63337.25;;;8.08;71.11
21879;BME280;27908;42.708;23.278;2023-02-19T06:00:45;63371.44;;;8.23;70.03
21879;BME280;27908;42.708;23.278;2023-02-19T06:03:11;63387.78;;;8.32;69.12
21879;BME280;27908;42.708;23.278;2023-02-19T06:05:37;63364.44;;;8.34;70.19
21879;BME280;27908;42.708;23.278;2023-02-19T06:08:02;63400.03;;;8.39;70.04
21879;BME280;27908;42.708;23.278;2023-02-19T06:10:28;63382.81;;;8.42;69.94
21879;BME280;27908;42.708;23.278;2023-02-19T06:12:54;63439.78;;;8.50;69.55
21879;BME280;27908;42.708;23.278;2023-02-19T06:15:20;63421.59;;;8.59;69.40
21879;BME280;27908;42.708;23.278;2023-02-19T06:17:45;63387.19;;;8.70;69.19
21879;BME280;27908;42.708;23.278;2023-02-19T06:20:11;63433.00;;;8.80;68.86
21879;BME280;27908;42.708;23.278;2023-02-19T06:22:36;63468.16;;;8.87;69.68
21879;BME280;27908;42.708;23.278;2023-02-19T06:25:02;63437.22;;;8.94;69.16
21879;BME280;27908;42.708;23.278;2023-02-19T06:27:27;63472.91;;;9.04;69.16
21879;BME280;27908;42.708;23.278;2023-02-19T06:29:53;63511.59;;;9.09;68.22
21879;BME280;27908;42.708;23.278;2023-02-19T06:32:18;63518.78;;;9.16;68.31
21879;BME280;27908;42.708;23.278;2023-02-19T06:34:44;63495.94;;;9.19;68.27
21879;BME280;27908;42.708;23.278;2023-02-19T06:37:09;63513.41;;;9.35;68.77
21879;BME280;27908;42.708;23.278;2023-02-19T06:39:35;63521.16;;;9.45;69.18
21879;BME280;27908;42.708;23.278;2023-02-19T06:42:00;63543.59;;;9.52;68.17
21879;BME280;27908;42.708;23.278;2023-02-19T06:44:25;63554.75;;;9.48;67.16
21879;BME280;27908;42.708;23.278;2023-02-19T06:46:54;63546.66;;;9.53;65.70
21879;BME280;27908;42.708;23.278;2023-02-19T06:49:20;63562.94;;;9.51;66.42
21879;BME280;27908;42.708;23.278;2023-02-19T06:51:46;63509.88;;;9.37;66.31
21879;BME280;27908;42.708;23.278;2023-02-19T06:54:11;63465.03;;;9.30;66.92
21879;BME280;27908;42.708;23.278;2023-02-19T06:56:38;63523.03;;;9.32;66.79
21879;BME280;27908;42.708;23.278;2023-02-19T06:59:06;63488.97;;;9.31;66.15
21879;BME280;27908;42.708;23.278;2023-02-19T07:01:33;63512.91;;;9.35;66.55
21879;BME280;27908;42.708;23.278;2023-02-19T07:03:59;63546.88;;;9.28;66.71
21879;BME280;27908;42.708;23.278;2023-02-19T07:06:25;63515.00;;;9.42;66.35
21879;BME280;27908;42.708;23.278;2023-02-19T07:08:51;63512.94;;;9.40;66.50
21879;BME280;27908;42.708;23.278;2023-02-19T07:11:17;63522.28;;;9.56;65.85
21879;BME280;27908;42.708;23.278;2023-02-19T07:13:43;63554.97;;;9.68;66.20
21879;BME280;27908;42.708;23.278;2023-02-19T07:16:09;63584.66;;;9.84;64.42
21879;BME280;27908;42.708;23.278;2023-02-19T07:18:35;63603.03;;;9.90;64.78
21879;BME280;27908;42.708;23.278;2023-02-19T07:21:06;63620.00;;;10.03;65.17
21879;BME280;27908;42.708;23.278;2023-02-19T07:23:33;63599.22;;;10.10;63.59
21879;BME280;27908;42.708;23.278;2023-02-19T07:25:59;63640.56;;;10.21;64.40
21879;BME280;27908;42.708;23.278;2023-02-19T07:28:24;63654.44;;;10.34;63.46
21879;BME280;27908;42.708;23.278;2023-02-19T07:30:50;63644.38;;;10.46;63.29
21879;BME280;27908;42.708;23.278;2023-02-19T07:33:15;63620.31;;;10.33;64.18
21879;BME280;27908;42.708;23.278;2023-02-19T07:35:48;63704.66;;;10.60;62.50
21879;BME280;27908;42.708;23.278;2023-02-19T07:38:19;63720.69;;;10.80;62.66
21879;BME280;27908;42.708;23.278;2023-02-19T07:40:51;63776.41;;;10.95;62.23
21879;BME280;27908;42.708;23.278;2023-02-19T07:43:17;63722.91;;;10.97;61.11
21879;BME280;27908;42.708;23.278;2023-02-19T07:45:43;63717.34;;;11.01;62.63
21879;BME280;27908;42.708;23.278;2023-02-19T07:48:08;63745.50;;;11.11;61.80
21879;BME280;27908;42.708;23.278;2023-02-19T07:50:33;63751.22;;;11.22;63.02
21879;BME280;27908;42.708;23.278;2023-02-19T07:52:59;63760.47;;;11.31;61.78
21879;BME280;27908;42.708;23.278;2023-02-19T07:55:24;63802.97;;;11.42;61.95
21879;BME280;27908;42.708;23.278;2023-02-19T07:57:50;63815.88;;;11.57;61.18
21879;BME280;27908;42.708;23.278;2023-02-19T08:00:15;63811.41;;;11.67;60.46
21879;BME280;27908;42.708;23.278;2023-02-19T08:02:41;63831.91;;;11.77;59.87
21879;BME280;27908;42.708;23.278;2023-02-19T08:05:31;63925.53;;;11.91;59.34
21879;BME280;27908;42.708;23.278;2023-02-19T08:07:58;63862.81;;;12.02;58.66
21879;BME280;27908;42.708;23.278;2023-02-19T08:10:24;63877.25;;;12.15;58.43
21879;BME280;27908;42.708;23.278;2023-02-19T08:13:14;63939.72;;;12.29;57.65
21879;BME280;27908;42.708;23.278;2023-02-19T08:18:30;63949.19;;;12.55;56.24
21879;BME280;27908;42.708;23.278;2023-02-19T08:20:56;63944.16;;;12.60;56.40
21879;BME280;27908;42.708;23.278;2023-02-19T08:23:23;63988.88;;;12.80;56.02
21879;BME280;27908;42.708;23.278;2023-02-19T08:25:50;63997.72;;;12.94;55.75
21879;BME280;27908;42.708;23.278;2023-02-19T08:28:16;64013.22;;;13.11;54.17
21879;BME280;27908;42.708;23.278;2023-02-19T08:30:43;64071.28;;;13.32;54.12
21879;BME280;27908;42.708;23.278;2023-02-19T08:33:11;64071.94;;;13.45;53.49
21879;BME280;27908;42.708;23.278;2023-02-19T08:35:37;64077.75;;;13.63;53.81
21879;BME280;27908;42.708;23.278;2023-02-19T08:38:04;64126.44;;;13.68;53.02
21879;BME280;27908;42.708;23.278;2023-02-19T08:40:32;64170.63;;;13.81;53.29
21879;BME280;27908;42.708;23.278;2023-02-19T08:43:06;64150.22;;;13.88;53.45
21879;BME280;27908;42.708;23.278;2023-02-19T08:45:32;64162.16;;;14.02;53.12
21879;BME280;27908;42.708;23.278;2023-02-19T08:47:58;64206.34;;;14.12;52.86
21879;BME280;27908;42.708;23.278;2023-02-19T08:50:25;64209.06;;;14.27;52.84
21879;BME280;27908;42.708;23.278;2023-02-19T08:52:51;64214.31;;;14.39;52.54
21879;BME280;27908;42.708;23.278;2023-02-19T08:55:16;64222.59;;;14.45;51.27
21879;BME280;27908;42.708;23.278;2023-02-19T08:57:43;64232.75;;;14.37;51.55
21879;BME280;27908;42.708;23.278;2023-02-19T09:00:09;64194.72;;;14.28;52.08
21879;BME280;27908;42.708;23.278;2023-02-19T09:02:35;64217.75;;;14.25;51.86
21879;BME280;27908;42.708;23.278;2023-02-19T09:05:00;64199.19;;;14.15;51.47
21879;BME280;27908;42.708;23.278;2023-02-19T09:07:26;64208.59;;;14.31;52.27
21879;BME280;27908;42.708;23.278;2023-02-19T09:09:52;64216.50;;;14.54;52.11
21879;BME280;27908;42.708;23.278;2023-02-19T09:12:18;64283.41;;;14.71;51.22
21879;BME280;27908;42.708;23.278;2023-02-19T09:14:43;64280.31;;;14.70;51.05
21879;BME280;27908;42.708;23.278;2023-02-19T09:17:09;64256.75;;;14.75;51.94
21879;BME280;27908;42.708;23.278;2023-02-19T09:19:35;64281.28;;;14.66;51.30
21879;BME280;27908;42.708;23.278;2023-02-19T09:22:02;64278.41;;;14.88;52.06
21879;BME280;27908;42.708;23.278;2023-02-19T09:24:27;64308.41;;;15.07;51.16
21879;BME280;27908;42.708;23.278;2023-02-19T09:26:53;64342.34;;;15.12;51.45
21879;BME280;27908;42.708;23.278;2023-02-19T09:29:21;64380.91;;;15.15;50.51
21879;BME280;27908;42.708;23.278;2023-02-19T09:31:48;64351.09;;;15.13;50.53
21879;BME280;27908;42.708;23.278;2023-02-19T09:34:13;64324.38;;;15.12;50.51
21879;BME280;27908;42.708;23.278;2023-02-19T09:36:39;64321.16;;;14.99;50.50
21879;BME280;27908;42.708;23.278;2023-02-19T09:39:06;64325.44;;;15.16;50.67
21879;BME280;27908;42.708;23.278;2023-02-19T09:41:35;64357.38;;;15.27;51.03
21879;BME280;27908;42.708;23.278;2023-02-19T09:44:03;64409.06;;;15.56;49.33
21879;BME280;27908;42.708;23.278;2023-02-19T09:46:30;64415.81;;;15.60;49.67
21879;BME280;27908;42.708;23.278;2023-02-19T09:49:02;64390.00;;;15.50;50.76
21879;BME280;27908;42.708;23.278;2023-02-19T09:51:30;64412.66;;;15.55;49.77
21879;BME280;27908;42.708;23.278;2023-02-19T09:53:56;64452.41;;;15.73;49.57
21879;BME280;27908;42.708;23.278;2023-02-19T09:56:24;64449.19;;;15.58;49.61
21879;BME280;27908;42.708;23.278;2023-02-19T09:58:52;64428.25;;;15.72;48.65
21879;BME280;27908;42.708;23.278;2023-02-19T10:01:21;64440.28;;;15.93;48.08
21879;BME280;27908;42.708;23.278;2023-02-19T10:03:48;64450.91;;;15.74;48.38
21879;BME280;27908;42.708;23.278;2023-02-19T10:06:22;64440.31;;;15.96;48.22
21879;BME280;27908;42.708;23.278;2023-02-19T10:08:51;64472.72;;;15.97;45.89
21879;BME280;27908;42.708;23.278;2023-02-19T10:11:17;64457.31;;;16.00;46.42
21879;BME280;27908;42.708;23.278;2023-02-19T10:13:48;64504.75;;;16.10;46.12
21879;BME280;27908;42.708;23.278;2023-02-19T10:16:25;64487.69;;;16.01;45.45
21879;BME280;27908;42.708;23.278;2023-02-19T10:18:51;64513.59;;;16.19;45.59
21879;BME280;27908;42.708;23.278;2023-02-19T10:21:23;64539.59;;;16.43;45.75
21879;BME280;27908;42.708;23.278;2023-02-19T10:23:53;64584.03;;;16.61;45.68
21879;BME280;27908;42.708;23.278;2023-02-19T10:26:21;64618.97;;;16.55;44.85
21879;BME280;27908;42.708;23.278;2023-02-19T10:28:46;64591.69;;;16.56;44.56
21879;BME280;27908;42.708;23.278;2023-02-19T10:31:18;64588.75;;;16.68;44.90
21879;BME280;27908;42.708;23.278;2023-02-19T10:33:55;64574.75;;;16.60;43.81
21879;BME280;27908;42.708;23.278;2023-02-19T10:36:39;64576.56;;;16.37;44.22
21879;BME280;27908;42.708;23.278;2023-02-19T10:41:47;64626.06;;;16.91;44.44
21879;BME280;27908;42.708;23.278;2023-02-19T10:44:15;64664.38;;;17.10;43.68
21879;BME280;27908;42.708;23.278;2023-02-19T10:46:47;64679.50;;;17.25;43.34
21879;BME280;27908;42.708;23.278;2023-02-19T10:49:24;64744.66;;;17.45;42.65
21879;BME280;27908;42.708;23.278;2023-02-19T10:51:53;64770.66;;;17.62;42.17
21879;BME280;27908;42.708;23.278;2023-02-19T10:54:23;64798.72;;;17.84;41.98
21879;BME280;27908;42.708;23.278;2023-02-19T10:56:49;64775.44;;;17.77;42.43
21879;BME280;27908;42.708;23.278;2023-02-19T11:02:16;64883.16;;;18.13;41.59
21879;BME280;27908;42.708;23.278;2023-02-19T11:05:02;64860.56;;;18.23;41.07
21879;BME280;27908;42.708;23.278;2023-02-19T11:07:29;64810.59;;;17.85;40.85
21879;BME280;27908;42.708;23.278;2023-02-19T11:09:55;64813.09;;;17.78;41.40
21879;BME280;27908;42.708;23.278;2023-02-19T11:12:24;64839.63;;;17.96;41.09
21879;BME280;27908;42.708;23.278;2023-02-19T11:14:51;64873.56;;;18.30;40.72
21879;BME280;27908;42.708;23.278;2023-02-19T11:17:27;64908.22;;;18.36;40.57
21879;BME280;27908;42.708;23.278;2023-02-19T11:19:57;64796.19;;;17.89;41.08
21879;BME280;27908;42.708;23.278;2023-02-19T11:25:17;64906.84;;;18.50;40.14
21879;BME280;27908;42.708;23.278;2023-02-19T11:30:42;65051.88;;;19.25;38.90
21879;BME280;27908;42.708;23.278;2023-02-19T11:35:40;65100.00;;;19.27;38.86
21879;BME280;27908;42.708;23.278;2023-02-19T11:38:09;65095.63;;;19.52;38.18
21879;BME280;27908;42.708;23.278;2023-02-19T11:44:07;65078.59;;;19.12;37.91
21879;BME280;27908;42.708;23.278;2023-02-19T11:52:37;65047.19;;;19.21;37.72
21879;BME280;27908;42.708;23.278;2023-02-19T11:55:55;64973.59;;;19.08;37.29
21879;BME280;27908;42.708;23.278;2023-02-19T12:00:52;65047.84;;;19.36;36.68
21879;BME280;27908;42.708;23.278;2023-02-19T12:14:47;65018.13;;;19.13;37.30
21879;BME280;27908;42.708;23.278;2023-02-19T12:26:03;65110.19;;;19.59;35.93
21879;BME280;27908;42.708;23.278;2023-02-19T12:28:50;65089.13;;;19.26;35.94
21879;BME280;27908;42.708;23.278;2023-02-19T12:56:33;65273.81;;;20.44;35.39
21879;BME280;27908;42.708;23.278;2023-02-19T13:02:47;65234.25;;;20.29;34.57
21879;BME280;27908;42.708;23.278;2023-02-19T13:10:35;65203.22;;;19.88;35.72
21879;BME280;27908;42.708;23.278;2023-02-19T13:13:08;65268.91;;;20.25;34.69
21879;BME280;27908;42.708;23.278;2023-02-19T13:16:15;65276.81;;;20.35;34.30
21879;BME280;27908;42.708;23.278;2023-02-19T13:37:50;65340.00;;;20.72;33.92
21879;BME280;27908;42.708;23.278;2023-02-19T13:40:36;65345.38;;;20.87;34.21
21879;BME280;27908;42.708;23.278;2023-02-19T13:45:56;65418.00;;;21.31;33.48
21879;BME280;27908;42.708;23.278;2023-02-19T13:50:48;65361.84;;;21.20;33.20
21879;BME280;27908;42.708;23.278;2023-02-19T13:58:57;65332.97;;;20.51;34.25
21879;BME280;27908;42.708;23.278;2023-02-19T14:05:10;65183.16;;;20.00;35.04
21879;BME280;27908;42.708;23.278;2023-02-19T14:10:11;65167.19;;;20.07;34.87
21879;BME280;27908;42.708;23.278;2023-02-19T14:12:37;65182.56;;;19.93;34.91
21879;BME280;27908;42.708;23.278;2023-02-19T14:17:59;65152.28;;;19.71;35.33
21879;BME280;27908;42.708;23.278;2023-02-19T14:23:07;65141.97;;;19.76;35.39
21879;BME280;27908;42.708;23.278;2023-02-19T14:25:45;65124.97;;;19.82;35.63
21879;BME280;27908;42.708;23.278;2023-02-19T14:30:50;65144.56;;;19.76;35.39
21879;BME280;27908;42.708;23.278;2023-02-19T14:33:20;65154.06;;;19.90;35.74
21879;BME280;27908;42.708;23.278;2023-02-19T14:35:50;65141.09;;;19.88;35.40
21879;BME280;27908;42.708;23.278;2023-02-19T14:38:21;65096.84;;;19.68;34.98
21879;BME280;27908;42.708;23.278;2023-02-19T14:40:48;65148.59;;;19.68;35.56
21879;BME280;27908;42.708;23.278;2023-02-19T14:43:16;65189.16;;;19.82;35.87
21879;BME280;27908;42.708;23.278;2023-02-19T14:45:47;65160.19;;;19.84;36.20
21879;BME280;27908;42.708;23.278;2023-02-19T14:48:44;65168.09;;;19.96;36.12
21879;BME280;27908;42.708;23.278;2023-02-19T14:51:25;65210.69;;;20.07;36.13
21879;BME280;27908;42.708;23.278;2023-02-19T14:53:55;65192.00;;;20.04;35.62
21879;BME280;27908;42.708;23.278;2023-02-19T14:56:25;65188.88;;;20.01;36.71
21879;BME280;27908;42.708;23.278;2023-02-19T15:04:23;65078.44;;;19.41;38.63
21879;BME280;27908;42.708;23.278;2023-02-19T15:06:49;65012.34;;;19.03;38.87
21879;BME280;27908;42.708;23.278;2023-02-19T15:09:18;64991.91;;;18.81;39.29
21879;BME280;27908;42.708;23.278;2023-02-19T15:11:44;64923.53;;;18.65;40.28
21879;BME280;27908;42.708;23.278;2023-02-19T15:14:19;64917.06;;;18.42;40.10
21879;BME280;27908;42.708;23.278;2023-02-19T15:16:46;64918.25;;;18.55;40.35
21879;BME280;27908;42.708;23.278;2023-02-19T15:19:13;64918.59;;;18.41;40.21
21879;BME280;27908;42.708;23.278;2023-02-19T15:21:45;64851.16;;;18.09;40.92
21879;BME280;27908;42.708;23.278;2023-02-19T15:24:13;64851.06;;;18.04;41.31
21879;BME280;27908;42.708;23.278;2023-02-19T15:26:41;64777.59;;;17.88;41.65
21879;BME280;27908;42.708;23.278;2023-02-19T15:29:12;64774.47;;;17.83;41.53
21879;BME280;27908;42.708;23.278;2023-02-19T15:32:12;64782.03;;;17.68;42.45
21879;BME280;27908;42.708;23.278;2023-02-19T15:34:40;64743.81;;;17.61;42.49
21879;BME280;27908;42.708;23.278;2023-02-19T15:37:07;64708.56;;;17.43;42.60
21879;BME280;27908;42.708;23.278;2023-02-19T15:39:39;64723.53;;;17.47;42.75
21879;BME280;27908;42.708;23.278;2023-02-19T15:42:05;64689.88;;;17.30;43.27
21879;BME280;27908;42.708;23.278;2023-02-19T15:47:55;64607.06;;;16.98;43.83
21879;BME280;27908;42.708;23.278;2023-02-19T15:50:28;64655.91;;;16.90;44.05
21879;BME280;27908;42.708;23.278;2023-02-19T15:53:07;64596.59;;;16.80;44.33